sensor_id;sensor_type;location;lat;lon;timestamp;temperature;humidity
11840;DHT22;5979;50.800;4.904;2023-07-31T00:00:48;17.70;99.90
11840;DHT22;5979;50.800;4.904;2023-07-31T00:03:14;17.60;99.90
11840;DHT22;5979;50.800;4.904;2023-07-31T00:05:40;17.70;99.90
11840;DHT22;5979;50.800;4.904;2023-07-31T00:08:05;17.70;99.90
11840;DHT22;5979;50.800;4.904;2023-07-31T00:10:31;17.80;99.90
11840;DHT22;5979;50.800;4.904;2023-07-31T00:12:56;17.80;99.90
11840;DHT22;5979;50.800;4.904;2023-07-31T00:15:22;17.80;99.90
11840;DHT22;5979;50.800;4.904;2023-07-31T00:17:48;17.80;99.90
11840;DHT22;5979;50.800;4.904;2023-07-31T00:20:13;17.90;99.90
11840;DHT22;5979;50.800;4.904;2023-07-31T00:22:39;17.80;99.90
11840;DHT22;5979;50.800;4.904;2023-07-31T00:25:05;17.90;99.90
11840;DHT22;5979;50.800;4.904;2023-07-31T00:27:32;17.90;99.90
11840;DHT22;5979;50.800;4.904;2023-07-31T00:29:58;17.90;99.90
11840;DHT22;5979;50.800;4.904;2023-07-31T00:32:23;17.90;99.90
11840;DHT22;5979;50.800;4.904;2023-07-31T00:34:49;17.90;99.90
11840;DHT22;5979;50.800;4.904;2023-07-31T00:37:14;18.00;99.90
11840;DHT22;5979;50.800;4.904;2023-07-31T00:39:41;18.00;99.90
11840;DHT22;5979;50.800;4.904;2023-07-31T00:42:06;18.00;99.90
11840;DHT22;5979;50.800;4.904;2023-07-31T00:44:32;18.00;99.90
11840;DHT22;5979;50.800;4.904;2023-07-31T00:46:58;18.00;99.90
11840;DHT22;5979;50.800;4.904;2023-07-31T00:49:25;18.10;99.90
11840;DHT22;5979;50.800;4.904;2023-07-31T00:51:51;18.00;99.90
11840;DHT22;5979;50.800;4.904;2023-07-31T00:54:17;18.00;99.90
11840;DHT22;5979;50.800;4.904;2023-07-31T00:56:45;18.00;99.90
11840;DHT22;5979;50.800;4.904;2023-07-31T00:59:11;17.90;99.90
11840;DHT22;5979;50.800;4.904;2023-07-31T01:01:37;17.90;99.90
11840;DHT22;5979;50.800;4.904;2023-07-31T01:04:03;18.00;99.90
11840;DHT22;5979;50.800;4.904;2023-07-31T01:09:28;18.00;99.90
11840;DHT22;5979;50.800;4.904;2023-07-31T01:12:01;17.90;99.90
11840;DHT22;5979;50.800;4.904;2023-07-31T01:14:27;17.90;99.90
11840;DHT22;5979;50.800;4.904;2023-07-31T01:16:53;17.90;99.90
11840;DHT22;5979;50.800;4.904;2023-07-31T01:19:22;17.90;99.90
11840;DHT22;5979;50.800;4.904;2023-07-31T01:22:27;17.90;99.90
11840;DHT22;5979;50.800;4.904;2023-07-31T01:27:44;17.90;99.90
11840;DHT22;5979;50.800;4.904;2023-07-31T01:30:21;17.90;99.90
11840;DHT22;5979;50.800;4.904;2023-07-31T01:32:48;17.90;99.90
11840;DHT22;5979;50.800;4.904;2023-07-31T01:35:15;17.90;99.90
11840;DHT22;5979;50.800;4.904;2023-07-31T01:37:40;17.90;99.90
11840;DHT22;5979;50.800;4.904;2023-07-31T01:40:06;17.90;99.90
11840;DHT22;5979;50.800;4.904;2023-07-31T01:42:32;17.80;99.90
11840;DHT22;5979;50.800;4.904;2023-07-31T01:44:58;17.80;99.90
11840;DHT22;5979;50.800;4.904;2023-07-31T01:47:23;17.80;99.90
11840;DHT22;5979;50.800;4.904;2023-07-31T01:49:49;17.80;99.90
11840;DHT22;5979;50.800;4.904;2023-07-31T01:52:15;17.90;99.90
11840;DHT22;5979;50.800;4.904;2023-07-31T01:54:40;17.90;99.90
11840;DHT22;5979;50.800;4.904;2023-07-31T01:57:06;17.90;99.90
11840;DHT22;5979;50.800;4.904;2023-07-31T01:59:32;17.90;99.90
11840;DHT22;5979;50.800;4.904;2023-07-31T02:01:58;17.90;99.90
11840;DHT22;5979;50.800;4.904;2023-07-31T02:04:23;17.90;99.90
11840;DHT22;5979;50.800;4.904;2023-07-31T02:06:49;17.90;99.90
11840;DHT22;5979;50.800;4.904;2023-07-31T02:09:14;17.90;99.90
11840;DHT22;5979;50.800;4.904;2023-07-31T02:11:40;17.90;99.90
11840;DHT22;5979;50.800;4.904;2023-07-31T02:14:06;17.90;99.90
11840;DHT22;5979;50.800;4.904;2023-07-31T02:16:31;17.90;99.90
11840;DHT22;5979;50.800;4.904;2023-07-31T02:18:57;17.90;99.90
11840;DHT22;5979;50.800;4.904;2023-07-31T02:21:23;17.90;99.90
11840;DHT22;5979;50.800;4.904;2023-07-31T02:23:48;18.00;99.90
11840;DHT22;5979;50.800;4.904;2023-07-31T02:26:14;18.00;99.90
11840;DHT22;5979;50.800;4.904;2023-07-31T02:28:40;18.00;99.90
11840;DHT22;5979;50.800;4.904;2023-07-31T02:31:08;18.00;99.90
11840;DHT22;5979;50.800;4.904;2023-07-31T02:33:34;17.90;99.90
11840;DHT22;5979;50.800;4.904;2023-07-31T02:35:59;17.90;99.90
11840;DHT22;5979;50.800;4.904;2023-07-31T02:38:25;17.90;99.90
11840;DHT22;5979;50.800;4.904;2023-07-31T02:40:51;17.90;99.90
11840;DHT22;5979;50.800;4.904;2023-07-31T02:43:16;18.00;99.90
11840;DHT22;5979;50.800;4.904;2023-07-31T02:45:42;17.90;99.90
11840;DHT22;5979;50.800;4.904;2023-07-31T02:48:07;17.90;99.90
11840;DHT22;5979;50.800;4.904;2023-07-31T02:50:33;18.00;99.90
11840;DHT22;5979;50.800;4.904;2023-07-31T02:52:59;18.00;99.90
11840;DHT22;5979;50.800;4.904;2023-07-31T02:55:24;18.00;99.90
11840;DHT22;5979;50.800;4.904;2023-07-31T02:57:50;18.00;99.90
11840;DHT22;5979;50.800;4.904;2023-07-31T03:00:17;18.00;99.90
11840;DHT22;5979;50.800;4.904;2023-07-31T03:02:43;17.90;99.90
11840;DHT22;5979;50.800;4.904;2023-07-31T03:05:09;17.90;99.90
11840;DHT22;5979;50.800;4.904;2023-07-31T03:07:34;18.00;99.90
11840;DHT22;5979;50.800;4.904;2023-07-31T03:10:00;18.00;99.90
11840;DHT22;5979;50.800;4.904;2023-07-31T03:12:26;17.90;99.90
11840;DHT22;5979;50.800;4.904;2023-07-31T03:14:52;17.90;99.90
11840;DHT22;5979;50.800;4.904;2023-07-31T03:17:17;18.00;99.90
11840;DHT22;5979;50.800;4.904;2023-07-31T03:19:43;18.00;99.90
11840;DHT22;5979;50.800;4.904;2023-07-31T03:22:09;17.90;99.90
11840;DHT22;5979;50.800;4.904;2023-07-31T03:24:34;17.90;99.90
11840;DHT22;5979;50.800;4.904;2023-07-31T03:27:00;17.90;99.90
11840;DHT22;5979;50.800;4.904;2023-07-31T03:29:25;17.90;99.90
11840;DHT22;5979;50.800;4.904;2023-07-31T03:31:51;17.90;99.90
11840;DHT22;5979;50.800;4.904;2023-07-31T03:34:17;17.80;99.90
11840;DHT22;5979;50.800;4.904;2023-07-31T03:36:42;17.80;99.90
11840;DHT22;5979;50.800;4.904;2023-07-31T03:39:08;17.80;99.90
11840;DHT22;5979;50.800;4.904;2023-07-31T03:41:34;17.90;99.90
11840;DHT22;5979;50.800;4.904;2023-07-31T03:43:59;17.90;99.90
11840;DHT22;5979;50.800;4.904;2023-07-31T03:46:25;17.80;99.90
11840;DHT22;5979;50.800;4.904;2023-07-31T03:48:51;17.80;99.90
11840;DHT22;5979;50.800;4.904;2023-07-31T03:51:17;17.80;99.90
11840;DHT22;5979;50.800;4.904;2023-07-31T03:53:43;17.80;99.90
11840;DHT22;5979;50.800;4.904;2023-07-31T03:56:09;17.80;99.90
11840;DHT22;5979;50.800;4.904;2023-07-31T03:58:35;17.80;99.90
11840;DHT22;5979;50.800;4.904;2023-07-31T04:01:02;17.80;99.90
11840;DHT22;5979;50.800;4.904;2023-07-31T04:03:28;17.80;99.90
11840;DHT22;5979;50.800;4.904;2023-07-31T04:05:55;17.90;99.90
11840;DHT22;5979;50.800;4.904;2023-07-31T04:08:23;17.90;99.90
11840;DHT22;5979;50.800;4.904;2023-07-31T04:10:49;17.80;99.90
11840;DHT22;5979;50.800;4.904;2023-07-31T04:13:15;17.80;99.90
11840;DHT22;5979;50.800;4.904;2023-07-31T04:15:41;17.80;99.90
11840;DHT22;5979;50.800;4.904;2023-07-31T04:18:07;17.80;99.90
11840;DHT22;5979;50.800;4.904;2023-07-31T04:20:32;17.80;99.90
11840;DHT22;5979;50.800;4.904;2023-07-31T04:22:58;17.80;99.90
11840;DHT22;5979;50.800;4.904;2023-07-31T04:25:24;17.80;99.90
11840;DHT22;5979;50.800;4.904;2023-07-31T04:27:49;17.70;99.90
11840;DHT22;5979;50.800;4.904;2023-07-31T04:30:15;17.80;99.90
11840;DHT22;5979;50.800;4.904;2023-07-31T04:32:41;17.80;99.90
11840;DHT22;5979;50.800;4.904;2023-07-31T04:35:07;17.80;99.90
11840;DHT22;5979;50.800;4.904;2023-07-31T04:37:32;17.80;99.90
11840;DHT22;5979;50.800;4.904;2023-07-31T04:39:58;17.80;99.90
11840;DHT22;5979;50.800;4.904;2023-07-31T04:42:24;17.80;99.90
11840;DHT22;5979;50.800;4.904;2023-07-31T04:44:49;17.80;99.90
11840;DHT22;5979;50.800;4.904;2023-07-31T04:47:15;17.70;99.90
11840;DHT22;5979;50.800;4.904;2023-07-31T04:49:40;17.70;99.90
11840;DHT22;5979;50.800;4.904;2023-07-31T04:52:06;17.70;99.90
11840;DHT22;5979;50.800;4.904;2023-07-31T04:54:32;17.70;99.90
11840;DHT22;5979;50.800;4.904;2023-07-31T04:56:57;17.60;99.90
11840;DHT22;5979;50.800;4.904;2023-07-31T04:59:23;17.70;99.90
11840;DHT22;5979;50.800;4.904;2023-07-31T05:01:49;17.80;99.90
11840;DHT22;5979;50.800;4.904;2023-07-31T05:04:15;17.80;99.90
11840;DHT22;5979;50.800;4.904;2023-07-31T05:06:41;17.80;99.90
11840;DHT22;5979;50.800;4.904;2023-07-31T05:09:06;17.80;99.90
11840;DHT22;5979;50.800;4.904;2023-07-31T05:11:32;17.80;99.90
11840;DHT22;5979;50.800;4.904;2023-07-31T05:13:58;17.80;99.90
11840;DHT22;5979;50.800;4.904;2023-07-31T05:16:23;17.80;99.90
11840;DHT22;5979;50.800;4.904;2023-07-31T05:18:49;17.80;99.90
11840;DHT22;5979;50.800;4.904;2023-07-31T05:21:14;17.80;99.90
11840;DHT22;5979;50.800;4.904;2023-07-31T05:23:40;17.80;99.90
11840;DHT22;5979;50.800;4.904;2023-07-31T05:26:06;17.80;99.90
11840;DHT22;5979;50.800;4.904;2023-07-31T05:28:34;17.80;99.90
11840;DHT22;5979;50.800;4.904;2023-07-31T05:31:03;17.80;99.90
11840;DHT22;5979;50.800;4.904;2023-07-31T05:33:29;17.70;99.90
11840;DHT22;5979;50.800;4.904;2023-07-31T05:35:55;17.70;99.90
11840;DHT22;5979;50.800;4.904;2023-07-31T05:38:21;17.80;99.90
11840;DHT22;5979;50.800;4.904;2023-07-31T05:40:47;17.70;99.90
11840;DHT22;5979;50.800;4.904;2023-07-31T05:43:13;17.70;99.90
11840;DHT22;5979;50.800;4.904;2023-07-31T05:45:39;17.70;99.90
11840;DHT22;5979;50.800;4.904;2023-07-31T05:48:05;17.70;99.90
11840;DHT22;5979;50.800;4.904;2023-07-31T05:50:31;17.70;99.90
11840;DHT22;5979;50.800;4.904;2023-07-31T05:52:57;17.70;99.90
11840;DHT22;5979;50.800;4.904;2023-07-31T05:55:23;17.70;99.90
11840;DHT22;5979;50.800;4.904;2023-07-31T05:57:49;17.60;99.90
11840;DHT22;5979;50.800;4.904;2023-07-31T06:00:15;17.60;99.90
11840;DHT22;5979;50.800;4.904;2023-07-31T06:02:41;17.60;99.90
11840;DHT22;5979;50.800;4.904;2023-07-31T06:05:06;17.50;99.90
11840;DHT22;5979;50.800;4.904;2023-07-31T06:07:32;17.50;99.90
11840;DHT22;5979;50.800;4.904;2023-07-31T06:09:58;17.50;99.90
11840;DHT22;5979;50.800;4.904;2023-07-31T06:12:30;17.50;99.90
11840;DHT22;5979;50.800;4.904;2023-07-31T06:14:56;17.40;99.90
11840;DHT22;5979;50.800;4.904;2023-07-31T06:17:22;17.50;99.90
11840;DHT22;5979;50.800;4.904;2023-07-31T06:19:47;17.50;99.90
11840;DHT22;5979;50.800;4.904;2023-07-31T06:22:13;17.40;99.90
11840;DHT22;5979;50.800;4.904;2023-07-31T06:24:38;17.40;99.90
11840;DHT22;5979;50.800;4.904;2023-07-31T06:27:04;17.50;99.90
11840;DHT22;5979;50.800;4.904;2023-07-31T06:29:31;17.50;99.90
11840;DHT22;5979;50.800;4.904;2023-07-31T06:31:57;17.50;99.90
11840;DHT22;5979;50.800;4.904;2023-07-31T06:34:23;17.50;99.90
11840;DHT22;5979;50.800;4.904;2023-07-31T06:36:48;17.50;99.90
11840;DHT22;5979;50.800;4.904;2023-07-31T06:39:14;17.60;99.90
11840;DHT22;5979;50.800;4.904;2023-07-31T06:41:39;17.60;99.90
11840;DHT22;5979;50.800;4.904;2023-07-31T06:44:05;17.60;99.90
11840;DHT22;5979;50.800;4.904;2023-07-31T06:46:31;17.70;99.90
11840;DHT22;5979;50.800;4.904;2023-07-31T06:48:57;17.70;99.90
11840;DHT22;5979;50.800;4.904;2023-07-31T06:51:22;17.80;99.90
11840;DHT22;5979;50.800;4.904;2023-07-31T06:53:48;17.80;99.90
11840;DHT22;5979;50.800;4.904;2023-07-31T06:56:13;17.90;99.90
11840;DHT22;5979;50.800;4.904;2023-07-31T06:58:39;17.90;99.90
11840;DHT22;5979;50.800;4.904;2023-07-31T07:01:05;18.00;99.90
11840;DHT22;5979;50.800;4.904;2023-07-31T07:03:31;18.10;99.90
11840;DHT22;5979;50.800;4.904;2023-07-31T07:05:57;18.10;99.90
11840;DHT22;5979;50.800;4.904;2023-07-31T07:08:24;18.20;99.90
11840;DHT22;5979;50.800;4.904;2023-07-31T07:10:50;18.30;99.90
11840;DHT22;5979;50.800;4.904;2023-07-31T07:13:15;18.20;99.90
11840;DHT22;5979;50.800;4.904;2023-07-31T07:15:41;18.20;99.90
11840;DHT22;5979;50.800;4.904;2023-07-31T07:18:07;18.20;99.90
11840;DHT22;5979;50.800;4.904;2023-07-31T07:20:33;18.30;99.90
11840;DHT22;5979;50.800;4.904;2023-07-31T07:22:58;18.30;99.90
11840;DHT22;5979;50.800;4.904;2023-07-31T07:25:24;18.30;99.90
11840;DHT22;5979;50.800;4.904;2023-07-31T07:27:50;18.30;99.90
11840;DHT22;5979;50.800;4.904;2023-07-31T07:30:15;18.30;99.90
11840;DHT22;5979;50.800;4.904;2023-07-31T07:32:41;18.30;99.90
11840;DHT22;5979;50.800;4.904;2023-07-31T07:35:07;18.30;99.90
11840;DHT22;5979;50.800;4.904;2023-07-31T07:37:33;18.30;99.90
11840;DHT22;5979;50.800;4.904;2023-07-31T07:39:59;18.30;99.90
11840;DHT22;5979;50.800;4.904;2023-07-31T07:42:24;18.30;99.90
11840;DHT22;5979;50.800;4.904;2023-07-31T07:44:50;18.30;99.90
11840;DHT22;5979;50.800;4.904;2023-07-31T07:47:16;18.30;99.90
11840;DHT22;5979;50.800;4.904;2023-07-31T07:49:42;18.40;99.90
11840;DHT22;5979;50.800;4.904;2023-07-31T07:52:07;18.30;99.90
11840;DHT22;5979;50.800;4.904;2023-07-31T07:54:33;18.40;99.90
11840;DHT22;5979;50.800;4.904;2023-07-31T07:56:59;18.30;99.90
11840;DHT22;5979;50.800;4.904;2023-07-31T07:59:25;18.30;99.90
11840;DHT22;5979;50.800;4.904;2023-07-31T08:01:50;18.40;99.90
11840;DHT22;5979;50.800;4.904;2023-07-31T08:04:16;18.40;99.90
11840;DHT22;5979;50.800;4.904;2023-07-31T08:06:42;18.40;99.90
11840;DHT22;5979;50.800;4.904;2023-07-31T08:09:07;18.40;99.90
11840;DHT22;5979;50.800;4.904;2023-07-31T08:11:34;18.40;99.90
11840;DHT22;5979;50.800;4.904;2023-07-31T08:14:00;18.40;99.90
11840;DHT22;5979;50.800;4.904;2023-07-31T08:16:26;18.50;99.90
11840;DHT22;5979;50.800;4.904;2023-07-31T08:18:51;18.40;99.90
11840;DHT22;5979;50.800;4.904;2023-07-31T08:21:17;18.40;99.90
11840;DHT22;5979;50.800;4.904;2023-07-31T08:23:43;18.40;99.90
11840;DHT22;5979;50.800;4.904;2023-07-31T08:26:14;18.50;99.90
11840;DHT22;5979;50.800;4.904;2023-07-31T08:28:39;18.50;99.90
11840;DHT22;5979;50.800;4.904;2023-07-31T08:31:05;18.50;99.90
11840;DHT22;5979;50.800;4.904;2023-07-31T08:33:31;18.50;99.90
11840;DHT22;5979;50.800;4.904;2023-07-31T08:35:57;18.60;99.90
11840;DHT22;5979;50.800;4.904;2023-07-31T08:38:22;18.70;99.90
11840;DHT22;5979;50.800;4.904;2023-07-31T08:40:50;18.80;99.90
11840;DHT22;5979;50.800;4.904;2023-07-31T08:43:16;18.90;99.90
11840;DHT22;5979;50.800;4.904;2023-07-31T08:45:42;18.90;99.90
11840;DHT22;5979;50.800;4.904;2023-07-31T08:48:08;18.90;99.90
11840;DHT22;5979;50.800;4.904;2023-07-31T08:50:34;18.80;99.90
11840;DHT22;5979;50.800;4.904;2023-07-31T08:53:00;18.80;99.90
11840;DHT22;5979;50.800;4.904;2023-07-31T08:55:27;18.80;99.90
11840;DHT22;5979;50.800;4.904;2023-07-31T08:57:54;18.90;99.90
11840;DHT22;5979;50.800;4.904;2023-07-31T09:00:20;18.90;99.90
11840;DHT22;5979;50.800;4.904;2023-07-31T09:03:07;18.90;99.90
11840;DHT22;5979;50.800;4.904;2023-07-31T09:05:35;19.00;99.90
11840;DHT22;5979;50.800;4.904;2023-07-31T09:08:02;18.90;99.90
11840;DHT22;5979;50.800;4.904;2023-07-31T09:10:29;18.90;99.90
11840;DHT22;5979;50.800;4.904;2023-07-31T09:12:55;18.90;99.90
11840;DHT22;5979;50.800;4.904;2023-07-31T09:15:22;18.80;99.90
11840;DHT22;5979;50.800;4.904;2023-07-31T09:17:59;18.90;99.90
11840;DHT22;5979;50.800;4.904;2023-07-31T09:20:26;18.90;99.90
11840;DHT22;5979;50.800;4.904;2023-07-31T09:22:52;19.00;99.90
11840;DHT22;5979;50.800;4.904;2023-07-31T09:30:13;19.10;99.90
11840;DHT22;5979;50.800;4.904;2023-07-31T09:32:39;19.10;99.90
11840;DHT22;5979;50.800;4.904;2023-07-31T09:35:28;19.20;99.90
11840;DHT22;5979;50.800;4.904;2023-07-31T09:38:14;19.20;99.90
11840;DHT22;5979;50.800;4.904;2023-07-31T09:40:46;19.30;99.90
11840;DHT22;5979;50.800;4.904;2023-07-31T09:43:13;19.30;99.90
11840;DHT22;5979;50.800;4.904;2023-07-31T09:45:43;19.40;99.90
11840;DHT22;5979;50.800;4.904;2023-07-31T09:48:13;19.50;99.90
11840;DHT22;5979;50.800;4.904;2023-07-31T09:50:42;19.60;99.90
11840;DHT22;5979;50.800;4.904;2023-07-31T09:53:08;19.70;99.90
11840;DHT22;5979;50.800;4.904;2023-07-31T09:55:35;19.70;99.90
11840;DHT22;5979;50.800;4.904;2023-07-31T09:58:06;19.80;99.90
11840;DHT22;5979;50.800;4.904;2023-07-31T10:00:33;19.80;99.90
11840;DHT22;5979;50.800;4.904;2023-07-31T10:03:04;19.90;99.90
11840;DHT22;5979;50.800;4.904;2023-07-31T10:05:49;19.80;99.90
11840;DHT22;5979;50.800;4.904;2023-07-31T10:08:16;19.80;99.90
11840;DHT22;5979;50.800;4.904;2023-07-31T10:10:44;19.80;99.90
11840;DHT22;5979;50.800;4.904;2023-07-31T10:13:11;19.80;99.90
11840;DHT22;5979;50.800;4.904;2023-07-31T10:15:36;20.00;99.90
11840;DHT22;5979;50.800;4.904;2023-07-31T10:18:02;20.00;99.90
11840;DHT22;5979;50.800;4.904;2023-07-31T10:20:31;20.00;99.90
11840;DHT22;5979;50.800;4.904;2023-07-31T10:22:57;19.90;99.90
11840;DHT22;5979;50.800;4.904;2023-07-31T10:25:26;19.90;99.90
11840;DHT22;5979;50.800;4.904;2023-07-31T10:27:53;20.00;99.90
11840;DHT22;5979;50.800;4.904;2023-07-31T10:30:22;20.10;99.90
11840;DHT22;5979;50.800;4.904;2023-07-31T10:32:51;20.30;99.90
11840;DHT22;5979;50.800;4.904;2023-07-31T10:35:17;20.50;99.90
11840;DHT22;5979;50.800;4.904;2023-07-31T10:37:43;20.40;99.90
11840;DHT22;5979;50.800;4.904;2023-07-31T10:40:26;20.40;99.90
11840;DHT22;5979;50.800;4.904;2023-07-31T10:42:54;20.40;99.90
11840;DHT22;5979;50.800;4.904;2023-07-31T10:45:34;20.40;99.90
11840;DHT22;5979;50.800;4.904;2023-07-31T10:50:38;20.50;99.90
11840;DHT22;5979;50.800;4.904;2023-07-31T10:53:04;20.50;99.90
11840;DHT22;5979;50.800;4.904;2023-07-31T10:55:41;20.70;99.90
11840;DHT22;5979;50.800;4.904;2023-07-31T10:58:10;20.80;99.90
11840;DHT22;5979;50.800;4.904;2023-07-31T11:00:41;20.90;99.90
11840;DHT22;5979;50.800;4.904;2023-07-31T11:03:10;21.00;99.90
11840;DHT22;5979;50.800;4.904;2023-07-31T11:05:45;21.00;99.90
11840;DHT22;5979;50.800;4.904;2023-07-31T11:08:33;21.00;99.90
11840;DHT22;5979;50.800;4.904;2023-07-31T11:15:54;20.80;99.90
11840;DHT22;5979;50.800;4.904;2023-07-31T11:18:20;20.70;99.90
11840;DHT22;5979;50.800;4.904;2023-07-31T11:20:46;20.60;99.90
11840;DHT22;5979;50.800;4.904;2023-07-31T11:23:12;20.60;99.90
11840;DHT22;5979;50.800;4.904;2023-07-31T11:25:39;20.70;99.90
11840;DHT22;5979;50.800;4.904;2023-07-31T11:28:09;21.00;99.90
11840;DHT22;5979;50.800;4.904;2023-07-31T11:30:35;21.00;99.90
11840;DHT22;5979;50.800;4.904;2023-07-31T11:33:05;21.30;99.90
11840;DHT22;5979;50.800;4.904;2023-07-31T11:35:32;21.40;99.90
11840;DHT22;5979;50.800;4.904;2023-07-31T11:37:59;21.50;99.90
11840;DHT22;5979;50.800;4.904;2023-07-31T11:40:25;21.60;99.90
11840;DHT22;5979;50.800;4.904;2023-07-31T11:42:58;21.60;99.90
11840;DHT22;5979;50.800;4.904;2023-07-31T11:45:26;21.60;99.90
11840;DHT22;5979;50.800;4.904;2023-07-31T11:47:55;21.50;99.90
11840;DHT22;5979;50.800;4.904;2023-07-31T11:50:22;21.50;99.90
11840;DHT22;5979;50.800;4.904;2023-07-31T11:52:50;21.40;99.90
11840;DHT22;5979;50.800;4.904;2023-07-31T11:55:18;21.40;99.90
11840;DHT22;5979;50.800;4.904;2023-07-31T11:57:45;21.40;99.90
11840;DHT22;5979;50.800;4.904;2023-07-31T12:00:12;21.30;99.90
11840;DHT22;5979;50.800;4.904;2023-07-31T12:02:39;21.20;99.90
11840;DHT22;5979;50.800;4.904;2023-07-31T12:05:11;21.30;99.90
11840;DHT22;5979;50.800;4.904;2023-07-31T12:07:55;21.30;99.90
11840;DHT22;5979;50.800;4.904;2023-07-31T12:10:30;21.30;99.90
11840;DHT22;5979;50.800;4.904;2023-07-31T12:13:04;21.40;99.90
11840;DHT22;5979;50.800;4.904;2023-07-31T12:15:41;21.50;99.90
11840;DHT22;5979;50.800;4.904;2023-07-31T12:18:14;21.60;99.90
11840;DHT22;5979;50.800;4.904;2023-07-31T12:20:42;21.70;99.90
11840;DHT22;5979;50.800;4.904;2023-07-31T12:23:34;21.80;99.90
11840;DHT22;5979;50.800;4.904;2023-07-31T12:26:15;22.10;99.90
11840;DHT22;5979;50.800;4.904;2023-07-31T12:28:49;22.40;99.90
11840;DHT22;5979;50.800;4.904;2023-07-31T12:31:16;22.60;99.90
11840;DHT22;5979;50.800;4.904;2023-07-31T12:33:43;22.80;99.90
11840;DHT22;5979;50.800;4.904;2023-07-31T12:36:11;23.00;99.90
11840;DHT22;5979;50.800;4.904;2023-07-31T12:38:37;22.90;99.90
11840;DHT22;5979;50.800;4.904;2023-07-31T12:41:03;22.80;99.90
11840;DHT22;5979;50.800;4.904;2023-07-31T12:43:29;22.70;99.90
11840;DHT22;5979;50.800;4.904;2023-07-31T12:45:55;22.60;99.90
11840;DHT22;5979;50.800;4.904;2023-07-31T12:48:22;22.50;99.90
11840;DHT22;5979;50.800;4.904;2023-07-31T12:50:47;22.40;99.90
11840;DHT22;5979;50.800;4.904;2023-07-31T12:53:14;22.20;99.90
11840;DHT22;5979;50.800;4.904;2023-07-31T12:55:40;22.10;99.90
11840;DHT22;5979;50.800;4.904;2023-07-31T12:58:05;21.90;99.90
11840;DHT22;5979;50.800;4.904;2023-07-31T13:00:31;21.80;99.90
11840;DHT22;5979;50.800;4.904;2023-07-31T13:02:57;21.60;99.90
11840;DHT22;5979;50.800;4.904;2023-07-31T13:05:22;21.50;99.90
11840;DHT22;5979;50.800;4.904;2023-07-31T13:07:48;21.40;99.90
11840;DHT22;5979;50.800;4.904;2023-07-31T13:10:14;21.40;99.90
11840;DHT22;5979;50.800;4.904;2023-07-31T13:12:40;21.40;99.90
11840;DHT22;5979;50.800;4.904;2023-07-31T13:15:06;21.50;99.90
11840;DHT22;5979;50.800;4.904;2023-07-31T13:17:32;21.70;99.90
11840;DHT22;5979;50.800;4.904;2023-07-31T13:19:58;21.90;99.90
11840;DHT22;5979;50.800;4.904;2023-07-31T13:22:24;22.10;99.90
11840;DHT22;5979;50.800;4.904;2023-07-31T13:24:50;22.20;99.90
11840;DHT22;5979;50.800;4.904;2023-07-31T13:27:16;22.30;99.90
11840;DHT22;5979;50.800;4.904;2023-07-31T13:29:44;22.40;99.90
11840;DHT22;5979;50.800;4.904;2023-07-31T13:32:10;22.30;99.90
11840;DHT22;5979;50.800;4.904;2023-07-31T13:34:35;22.10;99.90
11840;DHT22;5979;50.800;4.904;2023-07-31T13:37:01;22.00;99.90
11840;DHT22;5979;50.800;4.904;2023-07-31T13:39:27;21.80;99.90
11840;DHT22;5979;50.800;4.904;2023-07-31T13:41:52;21.70;99.90
11840;DHT22;5979;50.800;4.904;2023-07-31T13:44:18;21.60;99.90
11840;DHT22;5979;50.800;4.904;2023-07-31T13:46:44;21.40;99.90
11840;DHT22;5979;50.800;4.904;2023-07-31T13:49:09;21.30;99.90
11840;DHT22;5979;50.800;4.904;2023-07-31T13:51:35;21.10;99.90
11840;DHT22;5979;50.800;4.904;2023-07-31T13:54:01;20.90;99.90
11840;DHT22;5979;50.800;4.904;2023-07-31T13:56:27;20.80;99.90
11840;DHT22;5979;50.800;4.904;2023-07-31T13:58:52;20.60;99.90
11840;DHT22;5979;50.800;4.904;2023-07-31T14:01:18;20.50;99.90
11840;DHT22;5979;50.800;4.904;2023-07-31T14:03:44;20.40;99.90
11840;DHT22;5979;50.800;4.904;2023-07-31T14:06:09;20.30;99.90
11840;DHT22;5979;50.800;4.904;2023-07-31T14:08:35;20.20;99.90
11840;DHT22;5979;50.800;4.904;2023-07-31T14:11:01;20.20;99.90
11840;DHT22;5979;50.800;4.904;2023-07-31T14:13:26;20.10;99.90
11840;DHT22;5979;50.800;4.904;2023-07-31T14:15:52;20.00;99.90
11840;DHT22;5979;50.800;4.904;2023-07-31T14:18:18;20.00;99.90
11840;DHT22;5979;50.800;4.904;2023-07-31T14:20:44;20.00;99.90
11840;DHT22;5979;50.800;4.904;2023-07-31T14:23:10;20.10;99.90
11840;DHT22;5979;50.800;4.904;2023-07-31T14:25:36;20.10;99.90
11840;DHT22;5979;50.800;4.904;2023-07-31T14:28:01;20.10;99.90
11840;DHT22;5979;50.800;4.904;2023-07-31T14:30:27;20.10;99.90
11840;DHT22;5979;50.800;4.904;2023-07-31T14:32:53;20.10;99.90
11840;DHT22;5979;50.800;4.904;2023-07-31T14:35:19;20.10;99.90
11840;DHT22;5979;50.800;4.904;2023-07-31T14:37:45;20.10;99.90
11840;DHT22;5979;50.800;4.904;2023-07-31T14:40:12;20.00;99.90
11840;DHT22;5979;50.800;4.904;2023-07-31T14:42:38;19.90;99.90
11840;DHT22;5979;50.800;4.904;2023-07-31T14:45:06;19.80;99.90
11840;DHT22;5979;50.800;4.904;2023-07-31T14:47:32;19.70;99.90
11840;DHT22;5979;50.800;4.904;2023-07-31T14:49:59;19.70;99.90
11840;DHT22;5979;50.800;4.904;2023-07-31T14:52:25;19.70;99.90
11840;DHT22;5979;50.800;4.904;2023-07-31T14:54:51;19.70;99.90
11840;DHT22;5979;50.800;4.904;2023-07-31T14:57:17;19.80;99.90
11840;DHT22;5979;50.800;4.904;2023-07-31T14:59:43;19.80;99.90
11840;DHT22;5979;50.800;4.904;2023-07-31T15:02:09;19.80;99.90
11840;DHT22;5979;50.800;4.904;2023-07-31T15:04:35;19.80;99.90
11840;DHT22;5979;50.800;4.904;2023-07-31T15:07:01;19.70;99.90
11840;DHT22;5979;50.800;4.904;2023-07-31T15:09:27;19.80;99.90
11840;DHT22;5979;50.800;4.904;2023-07-31T15:11:53;19.80;99.90
11840;DHT22;5979;50.800;4.904;2023-07-31T15:14:19;19.80;99.90
11840;DHT22;5979;50.800;4.904;2023-07-31T15:16:44;19.90;99.90
11840;DHT22;5979;50.800;4.904;2023-07-31T15:19:10;19.90;99.90
11840;DHT22;5979;50.800;4.904;2023-07-31T15:21:37;19.90;99.90
11840;DHT22;5979;50.800;4.904;2023-07-31T15:24:03;19.90;99.90
11840;DHT22;5979;50.800;4.904;2023-07-31T15:26:28;19.90;99.90
11840;DHT22;5979;50.800;4.904;2023-07-31T15:29:02;19.80;99.90
11840;DHT22;5979;50.800;4.904;2023-07-31T15:31:31;19.80;99.90
11840;DHT22;5979;50.800;4.904;2023-07-31T15:33:56;19.80;99.90
11840;DHT22;5979;50.800;4.904;2023-07-31T15:36:22;19.80;99.90
11840;DHT22;5979;50.800;4.904;2023-07-31T15:38:48;19.70;99.90
11840;DHT22;5979;50.800;4.904;2023-07-31T15:41:17;19.70;99.90
11840;DHT22;5979;50.800;4.904;2023-07-31T15:43:42;19.70;99.90
11840;DHT22;5979;50.800;4.904;2023-07-31T15:46:08;19.70;99.90
11840;DHT22;5979;50.800;4.904;2023-07-31T15:48:34;19.70;99.90
11840;DHT22;5979;50.800;4.904;2023-07-31T15:50:59;19.70;99.90
11840;DHT22;5979;50.800;4.904;2023-07-31T15:53:26;19.60;99.90
11840;DHT22;5979;50.800;4.904;2023-07-31T15:55:55;19.60;99.90
11840;DHT22;5979;50.800;4.904;2023-07-31T15:58:21;19.60;99.90
11840;DHT22;5979;50.800;4.904;2023-07-31T16:00:47;19.60;99.90